KVGT/VGT METAR and TAF weather

Enter ICAO airport designator
Station Type Date Time Source
KVGT METAR 2019/02/20 23:53 UTC NOAA

KVGT 202353Z 10010KT 10SM OVC075 07/M05 A2968 RMK AO2 SLP078 T00721050 10083 20039 56008


Station Type Date Time Source
KVGT Decoded METAR 2019/02/20 23:53 UTC NOAA

NORTH LAS VEGAS, NV, United States (KVGT) 36-12N 115-11W
Feb 20, 2019 - 06:53 PM EST / 2019.02.20 2353 UTC
Wind: from the E (100 degrees) at 12 MPH (10 KT):0
Visibility: 10 mile(s):0
Sky conditions: overcast
Temperature: 45.0 F (7.2 C)
Dew Point: 23.0 F (-5.0 C)
Relative Humidity: 41%
Pressure (altimeter): 29.68 in. Hg (1005 hPa)
Pressure tendency: 0.02 inches (0.8 hPa) lower than three hours ago
ob: KVGT 202353Z 10010KT 10SM OVC075 07/M05 A2968 RMK AO2 SLP078 T00721050 10083 20039 56008
cycle: 0

Station Type Date Time Source
KVGT TAF 2019/02/20 22:33 UTC NOAA

TAF
AMD KVGT 202130Z 2022/2118 32012G20KT P6SM VCSH SCT050 BKN080
FM210200 02008KT P6SM -SHRA BKN050 OVC080
FM210500 34009KT 5SM -SNRA BKN030 OVC050
FM210900 34008KT 3SM -SHSN BR SCT015 OVC030
FM211700 32007KT P6SM -SHRA SCT030 OVC050


Example: see airport list